Time;durP1;ratioP1;P1;durP2;ratioP2;P2;SDS_P1;SDS_P2;PMS_P1;PMS_P2;Temp;Humidity;BMP_temperature;BMP_pressure;BME280_temperature;BME280_humidity;BME280_pressure;Samples;Min_cycle;Max_cycle;Signal;HPM_P1;HPM_P2
2021/05/23 00:02:04;;;;;;;4.73;2.00;;;10.30;99.90;;;;;;5020387;28;20037;-82
2021/05/23 00:04:30;;;;;;;5.30;1.83;;;10.40;99.90;;;;;;5032298;28;20032;-82
2021/05/23 00:06:56;;;;;;;3.53;1.73;;;10.30;99.90;;;;;;5031999;28;20025;-82
2021/05/23 00:09:21;;;;;;;3.77;1.80;;;10.30;99.90;;;;;;5031657;28;20025;-82
2021/05/23 00:11:47;;;;;;;3.07;1.57;;;10.40;99.90;;;;;;5032121;28;20033;-83
2021/05/23 00:14:13;;;;;;;5.23;1.80;;;10.40;99.90;;;;;;5028884;28;20076;-82
2021/05/23 00:16:38;;;;;;;3.80;1.90;;;10.40;99.90;;;;;;5032274;28;20513;-82
2021/05/23 00:19:04;;;;;;;6.18;1.95;;;10.40;99.90;;;;;;5012769;28;20037;-82
2021/05/23 00:21:30;;;;;;;5.35;1.60;;;10.40;99.90;;;;;;5030032;28;20136;-82
2021/05/23 00:23:56;;;;;;;2.90;1.92;;;10.40;99.90;;;;;;5030544;28;20037;-82
2021/05/23 00:26:23;;;;;;;4.07;1.67;;;10.50;99.90;;;;;;5012471;28;20475;-82
2021/05/23 00:28:49;;;;;;;3.35;1.70;;;10.50;99.90;;;;;;5029138;28;20018;-82
2021/05/23 00:31:15;;;;;;;4.97;1.70;;;10.40;99.90;;;;;;5030204;28;20013;-82
2021/05/23 00:33:41;;;;;;;4.50;1.77;;;10.40;99.90;;;;;;5028959;28;20030;-82
2021/05/23 00:36:07;;;;;;;2.30;1.57;;;10.40;99.90;;;;;;5020240;28;20150;-82
2021/05/23 00:38:32;;;;;;;4.85;1.77;;;10.40;99.90;;;;;;5029064;28;20037;-82
2021/05/23 00:40:58;;;;;;;3.77;1.80;;;10.40;99.90;;;;;;5030298;28;20061;-82
2021/05/23 00:43:24;;;;;;;5.27;1.80;;;10.40;99.90;;;;;;5012378;28;20441;-83
2021/05/23 00:45:51;;;;;;;3.58;2.15;;;10.50;99.90;;;;;;5030680;28;20034;-82
2021/05/23 00:48:18;;;;;;;3.75;1.60;;;10.50;99.90;;;;;;5025990;28;20076;-82
2021/05/23 00:50:44;;;;;;;3.60;1.95;;;10.50;99.90;;;;;;5011037;28;20145;-82
2021/05/23 00:53:11;;;;;;;3.72;1.88;;;10.50;99.90;;;;;;5019597;28;20379;-82
2021/05/23 00:55:38;;;;;;;3.20;1.73;;;10.50;99.90;;;;;;5030730;28;20018;-81
2021/05/23 00:58:06;;;;;;;4.03;1.83;;;10.50;99.90;;;;;;5028624;28;20766;-81
2021/05/23 01:00:40;;;;;;;4.30;1.83;;;10.40;99.90;;;;;;5018138;28;20680;-81
2021/05/23 01:03:25;;;;;;;5.07;2.10;;;10.40;99.90;;;;;;5029735;28;20036;-81
2021/05/23 01:06:07;;;;;;;6.63;1.77;;;10.40;99.90;;;;;;5020664;28;20028;-81
2021/05/23 01:08:35;;;;;;;4.35;1.90;;;10.40;99.90;;;;;;5027882;28;20021;-81
2021/05/23 01:11:06;;;;;;;4.72;1.88;;;10.40;99.90;;;;;;5022088;28;20161;-81
2021/05/23 01:13:35;;;;;;;3.25;1.55;;;10.40;99.90;;;;;;5024972;28;20060;-81
2021/05/23 01:16:05;;;;;;;3.95;1.70;;;10.40;99.90;;;;;;5030040;28;20045;-81
2021/05/23 01:18:43;;;;;;;3.78;1.70;;;10.40;99.90;;;;;;5025282;28;20210;-81
2021/05/23 01:21:10;;;;;;;3.65;1.60;;;10.30;99.90;;;;;;5022341;28;20079;-81
2021/05/23 01:23:44;;;;;;;3.25;1.90;;;10.30;99.90;;;;;;5029880;28;20120;-81
2021/05/23 01:26:13;;;;;;;5.68;2.00;;;10.30;99.90;;;;;;5029930;28;20108;-81
2021/05/23 01:29:02;;;;;;;4.53;1.70;;;10.30;99.90;;;;;;5029717;28;20063;-82
2021/05/23 01:31:31;;;;;;;4.47;2.03;;;10.30;99.90;;;;;;5022464;28;20041;-81
2021/05/23 01:34:01;;;;;;;5.10;1.90;;;10.30;99.90;;;;;;5019967;28;20088;-81
2021/05/23 01:36:30;;;;;;;3.92;1.55;;;10.30;99.90;;;;;;5034100;28;20021;-81
2021/05/23 01:38:57;;;;;;;4.03;1.52;;;10.30;99.90;;;;;;5032478;28;20036;-81
2021/05/23 01:41:23;;;;;;;3.25;1.50;;;10.30;99.90;;;;;;5017322;28;20430;-81
2021/05/23 01:43:49;;;;;;;4.63;1.48;;;10.30;99.90;;;;;;5027462;28;20498;-81
2021/05/23 01:46:15;;;;;;;4.43;1.57;;;10.30;99.90;;;;;;5033293;28;20080;-81
2021/05/23 01:48:41;;;;;;;2.70;1.45;;;10.30;99.90;;;;;;5025922;28;20089;-81
2021/05/23 01:51:08;;;;;;;2.88;1.40;;;10.30;99.90;;;;;;5016440;28;20073;-81
2021/05/23 01:53:35;;;;;;;2.50;1.17;;;10.30;99.90;;;;;;5015848;28;20021;-82
2021/05/23 01:56:00;;;;;;;2.95;1.95;;;10.30;99.90;;;;;;5000958;28;20022;-81
2021/05/23 01:58:26;;;;;;;4.68;1.98;;;10.30;99.90;;;;;;5013353;28;20026;-81
2021/05/23 02:00:53;;;;;;;2.60;1.52;;;10.30;99.90;;;;;;5026323;28;20032;-81
2021/05/23 02:03:21;;;;;;;3.15;1.42;;;10.30;99.90;;;;;;5033277;28;20013;-81
2021/05/23 02:05:53;;;;;;;2.97;1.40;;;10.30;99.90;;;;;;5032881;28;20461;-81
2021/05/23 02:08:20;;;;;;;3.22;1.48;;;10.30;99.90;;;;;;5020081;28;20025;-81
2021/05/23 02:10:47;;;;;;;3.15;1.30;;;10.30;99.90;;;;;;5033285;28;20373;-81
2021/05/23 02:13:14;;;;;;;6.68;1.50;;;10.30;99.90;;;;;;5015181;28;20083;-81
2021/05/23 02:15:40;;;;;;;3.10;1.40;;;10.30;99.90;;;;;;5034363;28;20045;-81
2021/05/23 02:18:07;;;;;;;5.30;1.48;;;10.30;99.90;;;;;;5039462;28;20073;-81
2021/05/23 02:20:34;;;;;;;4.53;1.60;;;10.30;99.90;;;;;;5024019;28;20137;-81
2021/05/23 02:23:03;;;;;;;3.58;1.48;;;10.30;99.90;;;;;;5015448;28;20032;-81
2021/05/23 02:25:30;;;;;;;2.63;1.55;;;10.30;99.90;;;;;;5033065;28;20013;-81
2021/05/23 02:27:58;;;;;;;2.72;1.30;;;10.30;99.90;;;;;;5016713;28;20045;-81
2021/05/23 02:30:36;;;;;;;1.85;1.42;;;10.20;99.90;;;;;;5029675;28;20465;-81
2021/05/23 02:33:04;;;;;;;2.92;1.67;;;10.20;99.90;;;;;;5033030;28;20024;-81
2021/05/23 02:35:34;;;;;;;4.25;1.63;;;10.20;99.90;;;;;;5032969;28;20009;-81
2021/05/23 02:38:03;;;;;;;5.10;1.70;;;10.10;99.90;;;;;;5011120;28;20348;-81
2021/05/23 02:40:29;;;;;;;2.80;1.67;;;10.10;99.90;;;;;;5032590;28;20107;-81
2021/05/23 02:42:56;;;;;;;5.40;1.50;;;10.00;99.90;;;;;;5031946;28;20068;-81
2021/05/23 02:45:23;;;;;;;4.38;1.45;;;10.10;99.90;;;;;;5032238;28;20025;-81
2021/05/23 02:47:49;;;;;;;4.37;1.70;;;10.10;99.90;;;;;;5032415;28;20370;-81
2021/05/23 02:50:24;;;;;;;3.73;1.40;;;10.00;99.90;;;;;;5023733;28;20029;-81
2021/05/23 02:52:49;;;;;;;2.30;1.27;;;10.00;99.90;;;;;;5032445;28;20022;-81
2021/05/23 02:55:16;;;;;;;4.50;1.80;;;10.00;99.90;;;;;;5024213;28;20072;-81
2021/05/23 02:57:42;;;;;;;4.38;2.05;;;9.80;99.90;;;;;;5027532;28;20470;-81
2021/05/23 03:00:11;;;;;;;3.43;1.53;;;9.80;99.90;;;;;;5032708;28;20022;-81
2021/05/23 03:02:37;;;;;;;2.57;1.40;;;9.70;99.90;;;;;;5027119;28;20482;-81
2021/05/23 03:05:05;;;;;;;4.87;1.70;;;9.60;99.90;;;;;;5032558;28;20024;-81
2021/05/23 03:07:37;;;;;;;2.63;1.30;;;9.50;99.90;;;;;;5032490;28;20043;-81
2021/05/23 03:10:08;;;;;;;4.60;1.77;;;9.40;99.90;;;;;;5017972;28;20021;-81
2021/05/23 03:12:33;;;;;;;5.10;1.53;;;9.30;99.90;;;;;;5032030;28;20037;-81
2021/05/23 03:14:59;;;;;;;4.00;1.67;;;9.30;99.90;;;;;;5029633;28;20053;-81
2021/05/23 03:17:25;;;;;;;3.60;1.67;;;9.10;99.90;;;;;;5032399;28;20065;-80
2021/05/23 03:19:50;;;;;;;3.30;1.63;;;9.10;99.90;;;;;;5032379;28;20034;-81
2021/05/23 03:22:16;;;;;;;4.33;1.80;;;9.10;99.90;;;;;;5025658;28;20026;-80
2021/05/23 03:24:41;;;;;;;4.97;1.70;;;9.00;99.90;;;;;;5024069;28;20495;-81
2021/05/23 03:27:07;;;;;;;5.87;2.17;;;8.90;99.90;;;;;;5017322;28;20041;-81
2021/05/23 03:29:32;;;;;;;3.83;1.47;;;8.90;99.90;;;;;;5024655;28;20955;-81
2021/05/23 03:31:58;;;;;;;3.43;1.50;;;8.90;99.90;;;;;;5014414;28;20067;-81
2021/05/23 03:34:24;;;;;;;2.30;1.20;;;8.80;99.90;;;;;;5032159;28;20117;-81
2021/05/23 03:36:49;;;;;;;3.77;1.30;;;8.80;99.90;;;;;;5029470;28;20077;-81
2021/05/23 03:39:15;;;;;;;4.97;1.27;;;8.80;99.90;;;;;;5027221;28;20021;-80
2021/05/23 03:41:41;;;;;;;3.80;1.20;;;8.70;99.90;;;;;;5032095;28;20038;-81
2021/05/23 03:44:06;;;;;;;3.07;1.40;;;8.70;99.90;;;;;;5030686;28;20025;-80
2021/05/23 03:46:32;;;;;;;3.33;1.20;;;8.70;99.90;;;;;;5018462;28;20025;-81
2021/05/23 03:48:58;;;;;;;5.07;1.30;;;8.70;99.90;;;;;;5026268;28;20030;-81
2021/05/23 03:51:23;;;;;;;1.83;1.17;;;8.70;99.90;;;;;;4998757;28;20029;-81
2021/05/23 03:53:49;;;;;;;1.83;1.00;;;8.60;99.90;;;;;;5027585;28;20071;-81
2021/05/23 03:56:14;;;;;;;3.40;1.10;;;8.70;99.90;;;;;;5020740;28;20030;-81
2021/05/23 03:58:40;;;;;;;2.10;1.33;;;8.60;99.90;;;;;;5021586;28;20014;-75
2021/05/23 04:01:05;;;;;;;1.80;0.93;;;8.70;99.90;;;;;;5017185;28;20028;-76
2021/05/23 04:03:32;;;;;;;1.20;1.00;;;8.60;99.90;;;;;;5034631;28;20518;-76
2021/05/23 04:05:58;;;;;;;1.67;0.93;;;8.60;99.90;;;;;;5034226;28;20374;-75
2021/05/23 04:08:24;;;;;;;1.37;0.90;;;8.50;99.90;;;;;;5034487;28;20029;-76
2021/05/23 04:10:57;;;;;;;2.87;1.10;;;8.40;99.90;;;;;;5034413;28;20025;-76
2021/05/23 04:13:24;;;;;;;1.90;1.10;;;8.50;99.90;;;;;;5032875;28;20029;-76
2021/05/23 04:15:49;;;;;;;1.87;1.07;;;8.40;99.90;;;;;;5034029;28;20042;-75
2021/05/23 04:18:15;;;;;;;1.90;0.83;;;8.50;99.90;;;;;;5034570;28;20168;-76
2021/05/23 04:20:41;;;;;;;2.77;0.97;;;8.50;99.90;;;;;;5034030;28;20486;-76
2021/05/23 04:23:06;;;;;;;1.27;1.10;;;8.50;99.90;;;;;;5034435;28;20494;-76
2021/05/23 04:25:32;;;;;;;1.60;0.80;;;8.50;99.90;;;;;;5034213;28;20466;-76
2021/05/23 04:27:58;;;;;;;1.27;0.80;;;8.50;99.90;;;;;;5033778;28;20035;-76
2021/05/23 04:30:27;;;;;;;1.00;0.83;;;8.50;99.90;;;;;;5034030;28;20104;-76
2021/05/23 04:32:55;;;;;;;1.33;0.87;;;8.50;99.90;;;;;;5034403;28;20241;-76
2021/05/23 04:35:21;;;;;;;3.13;1.43;;;8.40;99.90;;;;;;5033673;28;20025;-76
2021/05/23 04:37:47;;;;;;;2.30;0.80;;;8.40;99.90;;;;;;5033795;28;20463;-76
2021/05/23 04:40:14;;;;;;;1.40;0.80;;;8.40;99.90;;;;;;5032712;28;20025;-76
2021/05/23 04:42:40;;;;;;;1.00;0.83;;;8.30;99.90;;;;;;5014061;28;20030;-76
2021/05/23 04:45:06;;;;;;;2.43;0.83;;;8.30;99.90;;;;;;5013171;28;20096;-81
2021/05/23 04:47:33;;;;;;;2.17;1.00;;;8.30;99.90;;;;;;5027881;28;20029;-74
2021/05/23 04:49:59;;;;;;;0.77;0.77;;;8.30;99.90;;;;;;5021978;28;20033;-80
2021/05/23 04:52:24;;;;;;;2.07;0.90;;;8.30;99.90;;;;;;5033880;28;20448;-76
2021/05/23 04:54:50;;;;;;;0.80;0.80;;;8.30;99.90;;;;;;5015057;28;20419;-75
2021/05/23 04:57:16;;;;;;;2.60;1.00;;;8.20;99.90;;;;;;5013195;28;20037;-76
2021/05/23 04:59:41;;;;;;;1.73;0.90;;;8.20;99.90;;;;;;5011784;28;20036;-76
2021/05/23 05:02:08;;;;;;;1.33;0.80;;;8.20;99.90;;;;;;5013532;28;20026;-75
2021/05/23 05:04:34;;;;;;;2.23;1.17;;;8.20;99.90;;;;;;5019344;28;20037;-78
2021/05/23 05:07:00;;;;;;;0.73;0.60;;;8.20;99.90;;;;;;5007883;28;20026;-75
2021/05/23 05:09:26;;;;;;;1.07;0.80;;;8.20;99.90;;;;;;5033210;28;20076;-79
2021/05/23 05:11:52;;;;;;;3.73;1.10;;;8.30;99.90;;;;;;5025093;28;20116;-82
2021/05/23 05:14:17;;;;;;;1.33;0.70;;;8.30;99.90;;;;;;5015762;28;20140;-75
2021/05/23 05:16:43;;;;;;;0.93;0.70;;;8.20;99.90;;;;;;5012118;28;20057;-75
2021/05/23 05:19:09;;;;;;;1.37;1.27;;;8.20;99.90;;;;;;5013012;28;20084;-75
2021/05/23 05:21:35;;;;;;;0.90;0.70;;;8.20;99.90;;;;;;5011809;28;20041;-80
2021/05/23 05:24:00;;;;;;;0.80;0.70;;;8.20;99.90;;;;;;5018833;28;20061;-80
2021/05/23 05:26:26;;;;;;;1.37;0.80;;;8.30;99.90;;;;;;5020813;28;20068;-81
2021/05/23 05:28:52;;;;;;;0.93;0.70;;;8.30;99.90;;;;;;5016831;28;20014;-81
2021/05/23 05:31:18;;;;;;;0.80;0.80;;;8.30;99.90;;;;;;5015515;28;20486;-81
2021/05/23 05:33:43;;;;;;;0.90;0.80;;;8.30;99.90;;;;;;4997454;28;20030;-81
2021/05/23 05:36:09;;;;;;;1.13;0.73;;;8.30;99.90;;;;;;5015272;28;20030;-81
2021/05/23 05:38:35;;;;;;;0.60;0.60;;;8.40;99.90;;;;;;5001991;28;20467;-81
2021/05/23 05:41:01;;;;;;;0.70;0.70;;;8.40;99.90;;;;;;5013764;28;20080;-81
2021/05/23 05:43:27;;;;;;;1.07;0.80;;;8.30;99.90;;;;;;5015862;28;20147;-81
2021/05/23 05:45:52;;;;;;;1.50;0.70;;;8.40;99.90;;;;;;5018417;28;20631;-81
2021/05/23 05:48:18;;;;;;;0.67;0.67;;;8.30;99.90;;;;;;5010877;28;20433;-81
2021/05/23 05:50:44;;;;;;;0.77;0.70;;;8.40;99.90;;;;;;5022084;28;20112;-81
2021/05/23 05:53:10;;;;;;;0.70;0.70;;;8.40;99.90;;;;;;5004045;28;20096;-73
2021/05/23 05:55:35;;;;;;;0.70;0.70;;;8.30;99.90;;;;;;5016133;28;20034;-81
2021/05/23 05:58:01;;;;;;;1.67;0.60;;;8.30;99.90;;;;;;5017282;28;20025;-81
2021/05/23 06:00:26;;;;;;;0.90;0.60;;;8.30;99.90;;;;;;5023139;28;20021;-81
2021/05/23 06:02:52;;;;;;;0.60;0.60;;;8.30;99.90;;;;;;4999967;28;20109;-72
2021/05/23 06:05:18;;;;;;;0.60;0.60;;;8.20;99.90;;;;;;5014761;28;20037;-71
2021/05/23 06:07:44;;;;;;;0.60;0.60;;;8.20;99.90;;;;;;5017743;28;20351;-81
2021/05/23 06:10:10;;;;;;;0.97;0.93;;;8.10;99.90;;;;;;5000989;28;20028;-81
2021/05/23 06:12:36;;;;;;;1.60;1.00;;;8.10;99.90;;;;;;5018193;28;20471;-81
2021/05/23 06:15:03;;;;;;;1.87;1.10;;;8.10;99.90;;;;;;5004804;28;20053;-81
2021/05/23 06:17:28;;;;;;;1.20;0.93;;;8.20;99.90;;;;;;5019029;28;20121;-81
2021/05/23 06:19:54;;;;;;;1.53;1.00;;;8.20;99.90;;;;;;5022063;28;20101;-80
2021/05/23 06:22:19;;;;;;;1.27;0.80;;;8.20;99.90;;;;;;5024083;28;20100;-81
2021/05/23 06:24:45;;;;;;;0.70;0.70;;;8.30;99.90;;;;;;5019722;28;20053;-80
2021/05/23 06:27:10;;;;;;;1.03;0.60;;;8.20;99.90;;;;;;5026887;28;20041;-81
2021/05/23 06:29:36;;;;;;;0.70;0.70;;;8.10;99.90;;;;;;5025678;28;20033;-81
2021/05/23 06:32:02;;;;;;;0.90;0.70;;;8.10;99.90;;;;;;5021834;28;20112;-81
2021/05/23 06:34:28;;;;;;;1.60;0.60;;;8.10;99.90;;;;;;5032182;28;20148;-81
2021/05/23 06:36:54;;;;;;;1.43;0.80;;;8.10;99.90;;;;;;5020810;28;20405;-81
2021/05/23 06:39:19;;;;;;;1.80;0.70;;;8.10;99.90;;;;;;5031949;28;20025;-81
2021/05/23 06:41:45;;;;;;;0.83;0.70;;;8.00;99.90;;;;;;5021254;28;20025;-75
2021/05/23 06:44:10;;;;;;;1.00;0.70;;;8.10;99.90;;;;;;5035028;28;20029;-74
2021/05/23 06:46:38;;;;;;;0.70;0.70;;;8.10;99.90;;;;;;5032210;28;20045;-85
2021/05/23 06:49:04;;;;;;;0.87;0.87;;;8.10;99.90;;;;;;5018418;28;20029;-79
2021/05/23 06:51:30;;;;;;;1.33;1.20;;;8.10;99.90;;;;;;5027732;28;20018;-80
2021/05/23 06:53:55;;;;;;;1.87;1.63;;;8.10;99.90;;;;;;5022101;28;20372;-81
2021/05/23 06:56:21;;;;;;;1.20;1.00;;;8.20;99.90;;;;;;5026806;28;20060;-81
2021/05/23 06:58:47;;;;;;;0.73;0.73;;;8.20;99.90;;;;;;5019529;28;20087;-80
2021/05/23 07:01:13;;;;;;;1.20;1.10;;;8.20;99.90;;;;;;5022456;28;20045;-79
2021/05/23 07:03:38;;;;;;;1.03;0.90;;;8.20;99.90;;;;;;5034575;28;20033;-79
2021/05/23 07:06:04;;;;;;;1.27;1.07;;;8.30;99.90;;;;;;5039663;28;20115;-79
2021/05/23 07:08:30;;;;;;;0.80;0.80;;;8.30;99.90;;;;;;5028284;28;20040;-76
2021/05/23 07:10:55;;;;;;;0.87;0.77;;;8.30;99.90;;;;;;5029939;28;20026;-76
2021/05/23 07:13:23;;;;;;;0.70;0.70;;;8.30;99.90;;;;;;5019255;28;20025;-81
2021/05/23 07:15:50;;;;;;;0.70;0.70;;;8.30;99.90;;;;;;5011377;28;20049;-81
2021/05/23 07:18:15;;;;;;;2.43;0.80;;;8.30;99.90;;;;;;5000184;28;20463;-81
2021/05/23 07:20:41;;;;;;;1.30;0.70;;;8.30;99.90;;;;;;5002036;28;20037;-81
2021/05/23 07:23:07;;;;;;;0.80;0.80;;;8.30;99.90;;;;;;4998365;28;20037;-81
2021/05/23 07:25:33;;;;;;;0.80;0.80;;;8.40;99.90;;;;;;5015299;28;20046;-82
2021/05/23 07:27:59;;;;;;;0.80;0.70;;;8.40;99.90;;;;;;5018762;28;20094;-82
2021/05/23 07:30:25;;;;;;;0.80;0.70;;;8.50;99.90;;;;;;5010998;28;20076;-82
2021/05/23 07:32:51;;;;;;;1.07;0.97;;;8.50;99.90;;;;;;5016031;28;20101;-82
2021/05/23 07:35:17;;;;;;;1.07;0.80;;;8.50;99.90;;;;;;5024831;28;20547;-82
2021/05/23 07:37:43;;;;;;;0.83;0.70;;;8.50;99.90;;;;;;5017730;28;20120;-82
2021/05/23 07:40:10;;;;;;;1.17;0.73;;;8.60;99.90;;;;;;5016392;28;20435;-82
2021/05/23 07:42:35;;;;;;;0.80;0.70;;;8.80;99.90;;;;;;5021320;28;20030;-80
2021/05/23 07:45:01;;;;;;;1.47;0.80;;;8.90;99.90;;;;;;5034891;28;20033;-79
2021/05/23 07:47:27;;;;;;;1.83;0.90;;;9.00;99.90;;;;;;5035657;28;20033;-79
2021/05/23 07:49:53;;;;;;;1.67;0.93;;;9.10;99.90;;;;;;5034783;28;20026;-79
2021/05/23 07:52:18;;;;;;;2.07;0.90;;;9.30;99.90;;;;;;5010647;28;20402;-80
2021/05/23 07:54:44;;;;;;;1.33;0.90;;;9.40;99.90;;;;;;5030742;28;20029;-80
2021/05/23 07:57:13;;;;;;;2.50;1.00;;;9.40;99.90;;;;;;5027932;28;20030;-75
2021/05/23 07:59:39;;;;;;;1.23;0.80;;;9.50;99.90;;;;;;5022860;28;20025;-83
2021/05/23 08:02:04;;;;;;;1.23;0.80;;;9.60;99.90;;;;;;4998692;28;20036;-75
2021/05/23 08:04:30;;;;;;;1.30;0.90;;;9.80;99.90;;;;;;5029593;28;20044;-80
2021/05/23 08:06:56;;;;;;;2.53;1.00;;;9.90;99.90;;;;;;5027591;28;20050;-80
2021/05/23 08:09:21;;;;;;;0.90;0.80;;;10.00;99.90;;;;;;5031806;28;20014;-80
2021/05/23 08:11:47;;;;;;;0.97;0.70;;;10.10;99.90;;;;;;5030005;28;20056;-80
2021/05/23 08:14:17;;;;;;;3.20;1.00;;;10.20;99.90;;;;;;5031553;28;20569;-80
2021/05/23 08:16:45;;;;;;;2.50;0.90;;;10.40;99.90;;;;;;5029691;28;20025;-80
2021/05/23 08:19:13;;;;;;;1.87;1.00;;;10.40;99.90;;;;;;5018343;28;20097;-80
2021/05/23 08:21:39;;;;;;;0.93;0.80;;;10.50;99.90;;;;;;5023249;28;20030;-79
2021/05/23 08:24:06;;;;;;;2.07;0.80;;;10.60;99.90;;;;;;5023745;28;20088;-80
2021/05/23 08:26:33;;;;;;;0.70;0.70;;;10.60;99.90;;;;;;5020993;28;20104;-79
2021/05/23 08:29:00;;;;;;;1.53;0.70;;;10.60;99.90;;;;;;5015663;28;20022;-78
2021/05/23 08:31:26;;;;;;;0.77;0.70;;;10.50;99.90;;;;;;5022485;28;20108;-79
2021/05/23 08:33:53;;;;;;;1.03;0.83;;;10.40;99.90;;;;;;5014124;28;20029;-75
2021/05/23 08:36:19;;;;;;;1.77;0.90;;;10.50;99.90;;;;;;5014488;28;20070;-75
2021/05/23 08:38:44;;;;;;;1.10;0.80;;;10.40;99.90;;;;;;4994668;28;20030;-75
2021/05/23 08:41:10;;;;;;;2.30;1.00;;;10.30;99.90;;;;;;5031308;28;20028;-75
2021/05/23 08:43:36;;;;;;;2.73;1.00;;;10.20;99.90;;;;;;5034055;28;20057;-75
2021/05/23 08:46:02;;;;;;;3.63;1.20;;;9.90;99.90;;;;;;5033676;28;20021;-74
2021/05/23 08:48:27;;;;;;;5.13;1.17;;;9.70;99.90;;;;;;5017260;28;20020;-74
2021/05/23 08:50:54;;;;;;;1.43;0.90;;;9.60;99.90;;;;;;5015650;28;20025;-74
2021/05/23 08:53:19;;;;;;;3.33;0.90;;;9.20;99.90;;;;;;5033619;28;20068;-74
2021/05/23 08:55:45;;;;;;;1.60;0.90;;;9.00;99.90;;;;;;5004456;28;20053;-74
2021/05/23 08:58:11;;;;;;;1.00;0.80;;;8.80;99.90;;;;;;4998900;28;20040;-74
2021/05/23 09:00:38;;;;;;;2.37;0.90;;;8.60;99.90;;;;;;5033321;28;20033;-73
2021/05/23 09:03:07;;;;;;;1.13;0.77;;;8.50;99.90;;;;;;5023536;28;20026;-73
2021/05/23 09:05:37;;;;;;;2.63;0.90;;;8.40;99.90;;;;;;5013782;28;20022;-73
2021/05/23 09:08:18;;;;;;;3.37;1.00;;;8.40;99.90;;;;;;5013359;28;20017;-73
2021/05/23 09:10:45;;;;;;;2.60;0.90;;;8.40;99.90;;;;;;5023135;28;20018;-73
2021/05/23 09:13:12;;;;;;;1.93;1.40;;;8.30;99.90;;;;;;5033186;28;20025;-72
2021/05/23 09:15:38;;;;;;;2.23;1.13;;;8.20;99.90;;;;;;5026798;28;20042;-73
2021/05/23 09:18:11;;;;;;;3.67;1.40;;;8.10;99.90;;;;;;5019137;28;20037;-73
2021/05/23 09:20:40;;;;;;;1.53;1.17;;;8.00;99.90;;;;;;5013424;28;20427;-73
2021/05/23 09:23:13;;;;;;;2.63;1.20;;;8.10;99.90;;;;;;5027660;28;20025;-73
2021/05/23 09:25:38;;;;;;;2.40;1.07;;;8.10;99.90;;;;;;5032613;28;20068;-73
2021/05/23 09:28:06;;;;;;;3.83;1.60;;;8.20;99.90;;;;;;5019396;28;20107;-80
2021/05/23 09:30:34;;;;;;;1.57;1.00;;;8.30;99.90;;;;;;5015823;28;20029;-81
2021/05/23 09:33:01;;;;;;;2.87;0.90;;;8.40;99.90;;;;;;5016510;28;20036;-80
2021/05/23 09:35:29;;;;;;;0.97;0.87;;;8.50;99.90;;;;;;5016339;28;20029;-74
2021/05/23 09:38:06;;;;;;;3.40;1.33;;;8.70;99.90;;;;;;5033070;28;20041;-74
2021/05/23 09:40:38;;;;;;;2.67;1.07;;;9.00;99.90;;;;;;5032679;28;20033;-79
2021/05/23 09:43:05;;;;;;;2.77;1.00;;;9.10;99.90;;;;;;5021841;28;20038;-81
2021/05/23 09:45:45;;;;;;;2.10;1.00;;;9.40;99.90;;;;;;5019761;28;20072;-75
2021/05/23 09:48:27;;;;;;;1.47;0.90;;;9.50;99.90;;;;;;5036401;28;20048;-76
2021/05/23 09:50:55;;;;;;;2.87;1.37;;;9.60;99.90;;;;;;5015724;28;20026;-75
2021/05/23 09:53:22;;;;;;;1.27;0.90;;;9.70;99.90;;;;;;5016172;28;20418;-75
2021/05/23 09:55:59;;;;;;;2.10;0.97;;;9.70;99.90;;;;;;5030345;28;20100;-75
2021/05/23 09:58:33;;;;;;;6.47;1.00;;;9.90;99.90;;;;;;5050476;28;20108;-75
2021/05/23 10:00:58;;;;;;;4.53;1.50;;;10.10;99.90;;;;;;5029782;28;20116;-75
2021/05/23 10:03:32;;;;;;;2.43;1.30;;;10.40;99.90;;;;;;5024135;28;20060;-76
2021/05/23 10:05:59;;;;;;;1.60;1.00;;;10.70;99.90;;;;;;5029651;28;20021;-76
2021/05/23 10:08:26;;;;;;;1.10;0.90;;;10.90;99.90;;;;;;5002166;28;20033;-76
2021/05/23 10:10:53;;;;;;;1.85;0.77;;;11.20;99.90;;;;;;5006955;28;20026;-75
2021/05/23 10:13:20;;;;;;;2.88;1.15;;;11.50;99.90;;;;;;5021737;28;20506;-76
2021/05/23 10:15:46;;;;;;;1.85;0.90;;;11.70;99.90;;;;;;5016468;28;20057;-76
2021/05/23 10:18:12;;;;;;;1.63;1.10;;;11.70;99.90;;;;;;5016525;28;20045;-75
2021/05/23 10:20:39;;;;;;;2.08;0.98;;;11.50;99.90;;;;;;5024019;28;20029;-80
2021/05/23 10:23:15;;;;;;;1.55;0.90;;;11.60;99.90;;;;;;5020178;28;20045;-76
2021/05/23 10:25:48;;;;;;;1.80;1.40;;;11.90;99.90;;;;;;5023137;28;20033;-82
2021/05/23 10:28:15;;;;;;;2.05;1.15;;;12.20;99.90;;;;;;5019972;28;20026;-81
2021/05/23 10:30:53;;;;;;;1.77;0.90;;;12.30;99.90;;;;;;5014611;28;20081;-81
2021/05/23 10:33:21;;;;;;;1.15;0.70;;;12.70;99.90;;;;;;5016545;28;20068;-81
2021/05/23 10:35:49;;;;;;;1.90;0.88;;;12.60;99.90;;;;;;4996342;28;20096;-81
2021/05/23 10:38:18;;;;;;;4.93;0.93;;;13.00;99.90;;;;;;5015574;28;20030;-68
2021/05/23 10:40:52;;;;;;;1.70;0.90;;;13.30;99.90;;;;;;5015315;28;20026;-69
2021/05/23 10:43:24;;;;;;;4.30;1.27;;;13.60;99.90;;;;;;5009750;28;20026;-68
2021/05/23 10:46:01;;;;;;;2.70;1.00;;;13.90;99.90;;;;;;5015375;28;20030;-71
2021/05/23 10:48:27;;;;;;;3.25;1.00;;;14.20;99.90;;;;;;5015476;28;20026;-81
2021/05/23 10:50:52;;;;;;;2.50;0.80;;;14.50;99.90;;;;;;5015032;28;20037;-82
2021/05/23 10:53:18;;;;;;;1.48;0.80;;;14.80;99.90;;;;;;5031468;28;20501;-82
2021/05/23 10:55:55;;;;;;;1.92;0.75;;;14.70;99.90;;;;;;5025016;28;20033;-82
2021/05/23 10:58:22;;;;;;;4.95;1.20;;;14.90;99.90;;;;;;5030185;28;20013;-82
2021/05/23 11:00:56;;;;;;;1.73;0.82;;;15.00;99.90;;;;;;5023408;28;20356;-82
2021/05/23 11:03:25;;;;;;;2.40;0.70;;;14.90;99.90;;;;;;5025710;28;20112;-82
2021/05/23 11:06:07;;;;;;;3.72;0.73;;;14.70;99.90;;;;;;5032796;28;20521;-82
2021/05/23 11:08:34;;;;;;;1.85;0.77;;;14.60;99.90;;;;;;5014329;28;20038;-82
2021/05/23 11:11:01;;;;;;;1.30;0.70;;;14.90;99.90;;;;;;5024922;28;20173;-82
2021/05/23 11:13:26;;;;;;;2.95;0.80;;;15.00;99.90;;;;;;5022372;28;20101;-82
2021/05/23 11:15:52;;;;;;;2.55;0.88;;;15.30;99.90;;;;;;5012455;28;20049;-82
2021/05/23 11:18:27;;;;;;;0.90;0.60;;;15.90;99.90;;;;;;5012420;28;20090;-82
2021/05/23 11:21:12;;;;;;;1.38;0.80;;;16.40;99.90;;;;;;5012583;28;20109;-82
2021/05/23 11:23:50;;;;;;;;;;;16.40;99.90;;;;;;5024730;28;20382;-82
2021/05/23 11:26:17;;;;;;;1.13;0.70;;;16.60;99.90;;;;;;5024158;28;20317;-82
2021/05/23 11:28:52;;;;;;;0.95;0.68;;;16.70;99.90;;;;;;5014304;28;20382;-82
2021/05/23 11:31:29;;;;;;;0.95;0.60;;;16.90;99.90;;;;;;5031839;28;20092;-77
2021/05/23 11:33:55;;;;;;;1.50;0.65;;;16.90;99.90;;;;;;5035350;28;20030;-77
2021/05/23 11:36:26;;;;;;;1.73;0.77;;;17.00;99.90;;;;;;5035118;28;20018;-77
2021/05/23 11:39:00;;;;;;;1.05;0.70;;;17.00;99.90;;;;;;5035252;28;20021;-76
2021/05/23 11:41:27;;;;;;;2.37;0.77;;;16.90;99.90;;;;;;5035520;28;20045;-76
2021/05/23 11:43:57;;;;;;;2.05;0.60;;;17.00;99.90;;;;;;5035535;28;20258;-76
2021/05/23 11:46:24;;;;;;;1.05;0.63;;;17.30;99.90;;;;;;5035008;28;20445;-76
2021/05/23 11:48:50;;;;;;;2.28;0.85;;;17.70;99.90;;;;;;5035280;28;20438;-76
2021/05/23 11:51:24;;;;;;;1.02;0.70;;;17.70;99.90;;;;;;5034913;28;20075;-76
2021/05/23 11:53:52;;;;;;;3.38;1.00;;;17.60;99.90;;;;;;5034776;28;20028;-76
2021/05/23 11:56:29;;;;;;;1.63;0.82;;;17.60;99.90;;;;;;5034617;28;20021;-76
2021/05/23 11:59:00;;;;;;;2.75;1.08;;;16.80;99.90;;;;;;5034755;28;20026;-76
2021/05/23 12:01:31;;;;;;;1.98;0.77;;;16.00;99.90;;;;;;5031032;28;20037;-76
2021/05/23 12:04:06;;;;;;;1.05;0.60;;;15.20;99.90;;;;;;5014477;28;20053;-77
2021/05/23 12:06:36;;;;;;;0.75;0.52;;;14.30;99.90;;;;;;5018113;28;20366;-76
2021/05/23 12:09:16;;;;;;;1.15;0.80;;;14.00;99.90;;;;;;5031353;28;20025;-82
2021/05/23 12:11:43;;;;;;;3.05;0.80;;;13.70;99.90;;;;;;5013241;28;20084;-82
2021/05/23 12:14:33;;;;;;;3.38;1.30;;;13.50;99.90;;;;;;5030780;28;20049;-82
2021/05/23 12:17:02;;;;;;;0.85;0.70;;;13.50;99.90;;;;;;5022920;28;20083;-82
2021/05/23 12:19:54;;;;;;;1.27;0.80;;;13.50;99.90;;;;;;5017898;28;20026;-82
2021/05/23 12:22:24;;;;;;;1.13;0.88;;;13.40;99.90;;;;;;5018194;28;20485;-82
2021/05/23 12:24:58;;;;;;;0.90;0.73;;;13.30;99.90;;;;;;5030777;28;20029;-82
2021/05/23 12:27:33;;;;;;;2.20;1.10;;;13.30;99.90;;;;;;5023870;28;20383;-82
2021/05/23 12:30:07;;;;;;;3.75;0.73;;;13.10;99.90;;;;;;5025702;28;20025;-82
2021/05/23 12:32:53;;;;;;;1.05;0.85;;;13.40;99.90;;;;;;5032383;28;20024;-77
2021/05/23 12:35:21;;;;;;;1.58;0.80;;;13.90;99.90;;;;;;5018054;28;20121;-79
2021/05/23 12:38:08;;;;;;;1.10;0.70;;;14.60;99.90;;;;;;5009804;28;20119;-67
2021/05/23 12:40:35;;;;;;;1.98;0.70;;;15.10;99.90;;;;;;5017196;28;20104;-67
2021/05/23 12:43:34;;;;;;;3.15;0.90;;;14.70;99.90;;;;;;5015813;28;20034;-67
2021/05/23 12:46:03;;;;;;;1.42;0.63;;;15.00;99.90;;;;;;4969214;28;20042;-68
2021/05/23 12:48:40;;;;;;;1.63;0.70;;;15.50;99.90;;;;;;5008910;28;20473;-68
2021/05/23 12:51:08;;;;;;;1.13;0.68;;;16.00;99.90;;;;;;5011961;28;20105;-68
2021/05/23 12:53:35;;;;;;;2.33;0.80;;;16.30;99.90;;;;;;5032778;28;20026;-68
2021/05/23 12:56:09;;;;;;;0.75;0.60;;;16.50;99.90;;;;;;5035574;28;20091;-67
2021/05/23 12:59:08;;;;;;;1.88;0.68;;;16.60;99.90;;;;;;5026119;28;20102;-68